sensor_id;sensor_type;location;lat;lon;timestamp;temperature;humidity
67101;DHT22;54019;61.746;16.106;2022-12-29T00:01:36;22.70;25.50
67101;DHT22;54019;61.746;16.106;2022-12-29T00:04:04;22.70;25.50
67101;DHT22;54019;61.746;16.106;2022-12-29T00:06:30;22.70;25.50
67101;DHT22;54019;61.746;16.106;2022-12-29T00:08:56;22.70;25.40
67101;DHT22;54019;61.746;16.106;2022-12-29T00:11:24;22.70;25.40
67101;DHT22;54019;61.746;16.106;2022-12-29T00:13:50;22.70;25.30
67101;DHT22;54019;61.746;16.106;2022-12-29T00:16:16;22.80;25.30
67101;DHT22;54019;61.746;16.106;2022-12-29T00:18:42;22.80;25.30
67101;DHT22;54019;61.746;16.106;2022-12-29T00:21:11;22.80;25.30
67101;DHT22;54019;61.746;16.106;2022-12-29T00:23:38;22.80;25.20
67101;DHT22;54019;61.746;16.106;2022-12-29T00:26:10;22.80;25.30
67101;DHT22;54019;61.746;16.106;2022-12-29T00:28:37;22.80;25.20
67101;DHT22;54019;61.746;16.106;2022-12-29T00:31:08;22.80;25.20
67101;DHT22;54019;61.746;16.106;2022-12-29T00:33:36;22.80;25.20
67101;DHT22;54019;61.746;16.106;2022-12-29T00:36:06;22.80;25.10
67101;DHT22;54019;61.746;16.106;2022-12-29T00:38:36;22.80;25.10
67101;DHT22;54019;61.746;16.106;2022-12-29T00:41:03;22.80;25.00
67101;DHT22;54019;61.746;16.106;2022-12-29T00:43:28;22.90;25.00
67101;DHT22;54019;61.746;16.106;2022-12-29T00:45:54;22.90;25.00
67101;DHT22;54019;61.746;16.106;2022-12-29T00:48:20;22.80;25.00
67101;DHT22;54019;61.746;16.106;2022-12-29T00:50:46;22.80;25.00
67101;DHT22;54019;61.746;16.106;2022-12-29T00:53:12;22.80;25.00
67101;DHT22;54019;61.746;16.106;2022-12-29T00:55:39;22.80;25.10
67101;DHT22;54019;61.746;16.106;2022-12-29T00:58:04;22.80;25.00
67101;DHT22;54019;61.746;16.106;2022-12-29T01:00:30;22.80;25.00
67101;DHT22;54019;61.746;16.106;2022-12-29T01:02:56;22.90;25.00
67101;DHT22;54019;61.746;16.106;2022-12-29T01:05:22;22.90;25.10
67101;DHT22;54019;61.746;16.106;2022-12-29T01:07:48;22.90;25.00
67101;DHT22;54019;61.746;16.106;2022-12-29T01:10:13;22.90;25.00
67101;DHT22;54019;61.746;16.106;2022-12-29T01:12:40;22.90;25.00
67101;DHT22;54019;61.746;16.106;2022-12-29T01:15:08;22.90;25.00
67101;DHT22;54019;61.746;16.106;2022-12-29T01:17:34;22.90;25.00
67101;DHT22;54019;61.746;16.106;2022-12-29T01:20:00;22.90;24.90
67101;DHT22;54019;61.746;16.106;2022-12-29T01:22:26;22.90;25.00
67101;DHT22;54019;61.746;16.106;2022-12-29T01:24:52;23.00;24.90
67101;DHT22;54019;61.746;16.106;2022-12-29T01:27:17;22.90;24.90
67101;DHT22;54019;61.746;16.106;2022-12-29T01:29:45;22.90;24.80
67101;DHT22;54019;61.746;16.106;2022-12-29T01:32:10;23.00;24.80
67101;DHT22;54019;61.746;16.106;2022-12-29T01:34:36;23.00;24.80
67101;DHT22;54019;61.746;16.106;2022-12-29T01:37:02;23.00;24.70
67101;DHT22;54019;61.746;16.106;2022-12-29T01:39:28;23.00;24.60
67101;DHT22;54019;61.746;16.106;2022-12-29T01:41:54;23.00;24.60
67101;DHT22;54019;61.746;16.106;2022-12-29T01:44:50;23.00;24.60
67101;DHT22;54019;61.746;16.106;2022-12-29T01:47:21;23.30;25.30
67101;DHT22;54019;61.746;16.106;2022-12-29T01:49:48;23.30;24.80
67101;DHT22;54019;61.746;16.106;2022-12-29T01:52:14;23.40;24.80
67101;DHT22;54019;61.746;16.106;2022-12-29T01:54:43;23.40;24.70
67101;DHT22;54019;61.746;16.106;2022-12-29T01:57:15;23.40;24.80
67101;DHT22;54019;61.746;16.106;2022-12-29T01:59:45;23.40;25.10
67101;DHT22;54019;61.746;16.106;2022-12-29T02:02:13;23.30;25.40
67101;DHT22;54019;61.746;16.106;2022-12-29T02:04:40;23.30;25.50
67101;DHT22;54019;61.746;16.106;2022-12-29T02:07:10;23.20;25.60
67101;DHT22;54019;61.746;16.106;2022-12-29T02:09:39;23.10;25.70
67101;DHT22;54019;61.746;16.106;2022-12-29T02:12:05;23.10;25.90
67101;DHT22;54019;61.746;16.106;2022-12-29T02:14:31;23.10;26.00
67101;DHT22;54019;61.746;16.106;2022-12-29T02:17:05;23.00;26.00
67101;DHT22;54019;61.746;16.106;2022-12-29T02:19:53;23.00;26.00
67101;DHT22;54019;61.746;16.106;2022-12-29T02:22:28;23.00;26.10
67101;DHT22;54019;61.746;16.106;2022-12-29T02:25:29;23.00;26.10
67101;DHT22;54019;61.746;16.106;2022-12-29T02:28:37;23.00;26.00
67101;DHT22;54019;61.746;16.106;2022-12-29T02:31:15;23.00;26.00
67101;DHT22;54019;61.746;16.106;2022-12-29T02:33:51;23.00;25.90
67101;DHT22;54019;61.746;16.106;2022-12-29T02:36:28;23.00;25.80
67101;DHT22;54019;61.746;16.106;2022-12-29T02:39:04;23.00;25.80
67101;DHT22;54019;61.746;16.106;2022-12-29T02:41:31;23.00;25.80
67101;DHT22;54019;61.746;16.106;2022-12-29T02:44:04;23.00;25.80
67101;DHT22;54019;61.746;16.106;2022-12-29T02:46:39;23.00;25.80
67101;DHT22;54019;61.746;16.106;2022-12-29T02:49:11;23.00;25.80
67101;DHT22;54019;61.746;16.106;2022-12-29T02:51:44;22.90;25.70
67101;DHT22;54019;61.746;16.106;2022-12-29T02:54:12;23.00;25.60
67101;DHT22;54019;61.746;16.106;2022-12-29T02:56:38;23.00;25.50
67101;DHT22;54019;61.746;16.106;2022-12-29T02:59:03;23.00;25.40
67101;DHT22;54019;61.746;16.106;2022-12-29T03:01:40;23.00;25.40
67101;DHT22;54019;61.746;16.106;2022-12-29T03:04:18;23.00;25.30
67101;DHT22;54019;61.746;16.106;2022-12-29T03:06:54;23.00;25.20
67101;DHT22;54019;61.746;16.106;2022-12-29T03:09:29;23.00;25.30
67101;DHT22;54019;61.746;16.106;2022-12-29T03:12:08;23.00;25.30
67101;DHT22;54019;61.746;16.106;2022-12-29T03:14:53;23.00;25.20
67101;DHT22;54019;61.746;16.106;2022-12-29T03:17:27;23.00;25.10
67101;DHT22;54019;61.746;16.106;2022-12-29T03:20:01;23.00;24.90
67101;DHT22;54019;61.746;16.106;2022-12-29T03:22:30;23.00;24.80
67101;DHT22;54019;61.746;16.106;2022-12-29T03:24:59;23.00;24.80
67101;DHT22;54019;61.746;16.106;2022-12-29T03:27:28;23.10;25.40
67101;DHT22;54019;61.746;16.106;2022-12-29T03:29:57;23.00;24.50
67101;DHT22;54019;61.746;16.106;2022-12-29T03:32:28;23.10;24.60
67101;DHT22;54019;61.746;16.106;2022-12-29T03:34:57;23.00;24.50
67101;DHT22;54019;61.746;16.106;2022-12-29T03:37:27;23.00;24.50
67101;DHT22;54019;61.746;16.106;2022-12-29T03:39:54;23.00;24.50
67101;DHT22;54019;61.746;16.106;2022-12-29T03:42:23;23.00;24.50
67101;DHT22;54019;61.746;16.106;2022-12-29T03:44:53;23.00;24.40
67101;DHT22;54019;61.746;16.106;2022-12-29T03:47:19;23.00;24.40
67101;DHT22;54019;61.746;16.106;2022-12-29T03:49:47;23.00;24.10
67101;DHT22;54019;61.746;16.106;2022-12-29T03:52:12;23.00;24.30
67101;DHT22;54019;61.746;16.106;2022-12-29T03:54:38;23.10;24.30
67101;DHT22;54019;61.746;16.106;2022-12-29T03:57:04;23.00;25.00
67101;DHT22;54019;61.746;16.106;2022-12-29T03:59:30;23.00;24.90
67101;DHT22;54019;61.746;16.106;2022-12-29T04:01:56;23.00;24.80
67101;DHT22;54019;61.746;16.106;2022-12-29T04:04:21;23.00;24.80
67101;DHT22;54019;61.746;16.106;2022-12-29T04:06:48;23.00;24.90
67101;DHT22;54019;61.746;16.106;2022-12-29T04:09:14;22.90;24.70
67101;DHT22;54019;61.746;16.106;2022-12-29T04:11:40;22.90;24.40
67101;DHT22;54019;61.746;16.106;2022-12-29T04:14:06;22.90;24.20
67101;DHT22;54019;61.746;16.106;2022-12-29T04:16:31;22.90;24.00
67101;DHT22;54019;61.746;16.106;2022-12-29T04:18:57;23.00;23.40
67101;DHT22;54019;61.746;16.106;2022-12-29T04:21:23;23.00;23.70
67101;DHT22;54019;61.746;16.106;2022-12-29T04:23:50;23.10;23.80
67101;DHT22;54019;61.746;16.106;2022-12-29T04:26:16;23.10;23.40
67101;DHT22;54019;61.746;16.106;2022-12-29T04:28:42;23.10;22.70
67101;DHT22;54019;61.746;16.106;2022-12-29T04:31:07;23.00;22.50
67101;DHT22;54019;61.746;16.106;2022-12-29T04:33:33;23.00;22.40
67101;DHT22;54019;61.746;16.106;2022-12-29T04:35:59;23.00;22.30
67101;DHT22;54019;61.746;16.106;2022-12-29T04:38:25;22.90;22.20
67101;DHT22;54019;61.746;16.106;2022-12-29T04:40:52;22.90;22.10
67101;DHT22;54019;61.746;16.106;2022-12-29T04:43:18;22.90;22.00
67101;DHT22;54019;61.746;16.106;2022-12-29T04:45:44;22.90;21.90
67101;DHT22;54019;61.746;16.106;2022-12-29T04:48:10;22.90;21.70
67101;DHT22;54019;61.746;16.106;2022-12-29T04:50:36;22.90;21.80
67101;DHT22;54019;61.746;16.106;2022-12-29T04:53:02;22.90;21.60
67101;DHT22;54019;61.746;16.106;2022-12-29T04:55:28;22.90;21.60
67101;DHT22;54019;61.746;16.106;2022-12-29T04:57:55;22.90;21.60
67101;DHT22;54019;61.746;16.106;2022-12-29T05:00:21;22.90;21.50
67101;DHT22;54019;61.746;16.106;2022-12-29T05:02:47;22.80;21.30
67101;DHT22;54019;61.746;16.106;2022-12-29T05:05:13;22.80;21.40
67101;DHT22;54019;61.746;16.106;2022-12-29T05:07:39;22.90;21.50
67101;DHT22;54019;61.746;16.106;2022-12-29T05:10:06;22.80;21.20
67101;DHT22;54019;61.746;16.106;2022-12-29T05:12:32;22.90;21.20
67101;DHT22;54019;61.746;16.106;2022-12-29T05:14:59;22.80;21.10
67101;DHT22;54019;61.746;16.106;2022-12-29T05:17:25;22.80;21.10
67101;DHT22;54019;61.746;16.106;2022-12-29T05:19:51;22.90;21.10
67101;DHT22;54019;61.746;16.106;2022-12-29T05:22:17;22.80;21.10
67101;DHT22;54019;61.746;16.106;2022-12-29T05:24:42;22.90;21.20
67101;DHT22;54019;61.746;16.106;2022-12-29T05:27:08;22.90;21.10
67101;DHT22;54019;61.746;16.106;2022-12-29T05:29:34;22.80;21.00
67101;DHT22;54019;61.746;16.106;2022-12-29T05:32:01;22.80;21.10
67101;DHT22;54019;61.746;16.106;2022-12-29T05:34:27;22.70;21.10
67101;DHT22;54019;61.746;16.106;2022-12-29T05:36:53;22.70;21.10
67101;DHT22;54019;61.746;16.106;2022-12-29T05:39:18;22.60;21.10
67101;DHT22;54019;61.746;16.106;2022-12-29T05:41:45;22.60;21.00
67101;DHT22;54019;61.746;16.106;2022-12-29T05:44:11;22.60;21.00
67101;DHT22;54019;61.746;16.106;2022-12-29T05:46:37;22.50;21.00
67101;DHT22;54019;61.746;16.106;2022-12-29T05:49:04;22.50;21.00
67101;DHT22;54019;61.746;16.106;2022-12-29T05:51:30;22.50;21.00
67101;DHT22;54019;61.746;16.106;2022-12-29T05:53:56;22.40;20.80
67101;DHT22;54019;61.746;16.106;2022-12-29T05:56:22;22.50;20.90
67101;DHT22;54019;61.746;16.106;2022-12-29T05:58:47;22.40;20.80
67101;DHT22;54019;61.746;16.106;2022-12-29T06:01:13;22.50;20.80
67101;DHT22;54019;61.746;16.106;2022-12-29T06:03:39;22.40;20.90
67101;DHT22;54019;61.746;16.106;2022-12-29T06:06:06;22.50;21.00
67101;DHT22;54019;61.746;16.106;2022-12-29T06:08:32;22.40;21.10
67101;DHT22;54019;61.746;16.106;2022-12-29T06:10:58;22.50;21.20
67101;DHT22;54019;61.746;16.106;2022-12-29T06:13:24;22.50;21.20
67101;DHT22;54019;61.746;16.106;2022-12-29T06:15:50;22.50;21.20
67101;DHT22;54019;61.746;16.106;2022-12-29T06:18:16;22.50;21.20
67101;DHT22;54019;61.746;16.106;2022-12-29T06:20:41;22.50;21.30
67101;DHT22;54019;61.746;16.106;2022-12-29T06:23:09;22.50;21.20
67101;DHT22;54019;61.746;16.106;2022-12-29T06:25:34;22.60;21.20
67101;DHT22;54019;61.746;16.106;2022-12-29T06:28:00;22.60;21.30
67101;DHT22;54019;61.746;16.106;2022-12-29T06:30:26;22.60;21.30
67101;DHT22;54019;61.746;16.106;2022-12-29T06:32:52;22.60;21.40
67101;DHT22;54019;61.746;16.106;2022-12-29T06:35:18;22.60;21.30
67101;DHT22;54019;61.746;16.106;2022-12-29T06:37:44;22.60;21.20
67101;DHT22;54019;61.746;16.106;2022-12-29T06:40:11;22.60;21.20
67101;DHT22;54019;61.746;16.106;2022-12-29T06:42:37;22.60;21.20
67101;DHT22;54019;61.746;16.106;2022-12-29T06:45:06;22.50;21.40
67101;DHT22;54019;61.746;16.106;2022-12-29T06:47:32;22.50;21.80
67101;DHT22;54019;61.746;16.106;2022-12-29T06:49:58;22.50;21.80
67101;DHT22;54019;61.746;16.106;2022-12-29T06:52:24;22.50;21.80
67101;DHT22;54019;61.746;16.106;2022-12-29T06:54:49;22.40;21.80
67101;DHT22;54019;61.746;16.106;2022-12-29T06:57:17;22.40;22.00
67101;DHT22;54019;61.746;16.106;2022-12-29T06:59:43;22.30;21.80
67101;DHT22;54019;61.746;16.106;2022-12-29T07:02:10;22.30;21.70
67101;DHT22;54019;61.746;16.106;2022-12-29T07:04:36;22.30;21.70
67101;DHT22;54019;61.746;16.106;2022-12-29T07:07:01;22.30;21.80
67101;DHT22;54019;61.746;16.106;2022-12-29T07:09:27;22.30;22.10
67101;DHT22;54019;61.746;16.106;2022-12-29T07:11:53;22.40;22.50
67101;DHT22;54019;61.746;16.106;2022-12-29T07:14:20;22.50;22.70
67101;DHT22;54019;61.746;16.106;2022-12-29T07:16:46;22.60;23.10
67101;DHT22;54019;61.746;16.106;2022-12-29T07:19:12;22.60;23.20
67101;DHT22;54019;61.746;16.106;2022-12-29T07:21:37;22.70;24.10
67101;DHT22;54019;61.746;16.106;2022-12-29T07:24:04;22.80;23.40
67101;DHT22;54019;61.746;16.106;2022-12-29T07:26:30;22.80;23.60
67101;DHT22;54019;61.746;16.106;2022-12-29T07:28:56;22.80;24.20
67101;DHT22;54019;61.746;16.106;2022-12-29T07:31:23;22.90;24.90
67101;DHT22;54019;61.746;16.106;2022-12-29T07:33:49;22.90;24.60
67101;DHT22;54019;61.746;16.106;2022-12-29T07:36:15;22.90;24.90
67101;DHT22;54019;61.746;16.106;2022-12-29T07:38:41;22.90;25.00
67101;DHT22;54019;61.746;16.106;2022-12-29T07:41:07;22.90;25.00
67101;DHT22;54019;61.746;16.106;2022-12-29T07:43:33;22.80;24.90
67101;DHT22;54019;61.746;16.106;2022-12-29T07:45:59;22.70;24.60
67101;DHT22;54019;61.746;16.106;2022-12-29T07:48:27;22.70;23.90
67101;DHT22;54019;61.746;16.106;2022-12-29T07:50:53;22.60;23.80
67101;DHT22;54019;61.746;16.106;2022-12-29T07:53:19;22.50;23.70
67101;DHT22;54019;61.746;16.106;2022-12-29T07:55:45;22.50;23.70
67101;DHT22;54019;61.746;16.106;2022-12-29T07:58:14;22.50;23.60
67101;DHT22;54019;61.746;16.106;2022-12-29T08:00:40;22.50;23.70
67101;DHT22;54019;61.746;16.106;2022-12-29T08:03:05;22.40;23.00
67101;DHT22;54019;61.746;16.106;2022-12-29T08:05:33;22.40;23.20
67101;DHT22;54019;61.746;16.106;2022-12-29T08:07:59;22.30;24.30
67101;DHT22;54019;61.746;16.106;2022-12-29T08:10:25;22.40;24.30
67101;DHT22;54019;61.746;16.106;2022-12-29T08:12:51;22.40;23.70
67101;DHT22;54019;61.746;16.106;2022-12-29T08:15:17;22.40;23.80
67101;DHT22;54019;61.746;16.106;2022-12-29T08:17:43;22.40;24.10
67101;DHT22;54019;61.746;16.106;2022-12-29T08:20:09;22.40;23.70
67101;DHT22;54019;61.746;16.106;2022-12-29T08:22:36;22.30;23.30
67101;DHT22;54019;61.746;16.106;2022-12-29T08:25:03;22.30;23.20
67101;DHT22;54019;61.746;16.106;2022-12-29T08:27:29;22.20;20.80
67101;DHT22;54019;61.746;16.106;2022-12-29T08:29:55;21.90;19.70
67101;DHT22;54019;61.746;16.106;2022-12-29T08:32:20;21.80;19.50
67101;DHT22;54019;61.746;16.106;2022-12-29T08:34:46;21.80;19.30
67101;DHT22;54019;61.746;16.106;2022-12-29T08:37:12;21.90;19.10
67101;DHT22;54019;61.746;16.106;2022-12-29T08:39:39;21.90;18.90
67101;DHT22;54019;61.746;16.106;2022-12-29T08:42:05;21.90;18.80
67101;DHT22;54019;61.746;16.106;2022-12-29T08:44:31;21.90;18.90
67101;DHT22;54019;61.746;16.106;2022-12-29T08:46:56;21.90;18.90
67101;DHT22;54019;61.746;16.106;2022-12-29T08:49:22;21.90;19.10
67101;DHT22;54019;61.746;16.106;2022-12-29T08:51:48;21.90;19.20
67101;DHT22;54019;61.746;16.106;2022-12-29T08:54:14;21.80;19.20
67101;DHT22;54019;61.746;16.106;2022-12-29T08:56:41;21.80;19.40
67101;DHT22;54019;61.746;16.106;2022-12-29T08:59:07;21.70;19.50
67101;DHT22;54019;61.746;16.106;2022-12-29T09:01:32;21.70;19.60
67101;DHT22;54019;61.746;16.106;2022-12-29T09:03:58;21.60;19.60
67101;DHT22;54019;61.746;16.106;2022-12-29T09:06:24;21.60;19.60
67101;DHT22;54019;61.746;16.106;2022-12-29T09:08:50;21.60;19.60
67101;DHT22;54019;61.746;16.106;2022-12-29T09:11:18;21.60;19.60
67101;DHT22;54019;61.746;16.106;2022-12-29T09:13:46;21.70;19.80
67101;DHT22;54019;61.746;16.106;2022-12-29T09:16:12;21.70;19.70
67101;DHT22;54019;61.746;16.106;2022-12-29T09:18:38;21.70;19.80
67101;DHT22;54019;61.746;16.106;2022-12-29T09:21:05;21.70;19.70
67101;DHT22;54019;61.746;16.106;2022-12-29T09:23:32;21.70;19.80
67101;DHT22;54019;61.746;16.106;2022-12-29T09:25:58;21.70;19.70
67101;DHT22;54019;61.746;16.106;2022-12-29T09:28:24;21.70;19.60
67101;DHT22;54019;61.746;16.106;2022-12-29T09:30:51;21.70;19.70
67101;DHT22;54019;61.746;16.106;2022-12-29T09:33:18;21.70;19.70
67101;DHT22;54019;61.746;16.106;2022-12-29T09:35:44;21.70;19.70
67101;DHT22;54019;61.746;16.106;2022-12-29T09:38:10;21.70;19.70
67101;DHT22;54019;61.746;16.106;2022-12-29T09:40:37;21.70;19.70
67101;DHT22;54019;61.746;16.106;2022-12-29T09:43:14;21.80;19.70
67101;DHT22;54019;61.746;16.106;2022-12-29T09:45:45;21.80;19.70
67101;DHT22;54019;61.746;16.106;2022-12-29T09:48:16;21.80;19.60
67101;DHT22;54019;61.746;16.106;2022-12-29T09:50:45;21.70;19.70
67101;DHT22;54019;61.746;16.106;2022-12-29T09:53:17;21.80;19.70
67101;DHT22;54019;61.746;16.106;2022-12-29T09:55:47;21.70;19.70
67101;DHT22;54019;61.746;16.106;2022-12-29T09:58:17;21.60;19.90
67101;DHT22;54019;61.746;16.106;2022-12-29T10:00:50;21.60;19.90
67101;DHT22;54019;61.746;16.106;2022-12-29T10:03:20;21.50;20.00
67101;DHT22;54019;61.746;16.106;2022-12-29T10:05:50;21.50;19.80
67101;DHT22;54019;61.746;16.106;2022-12-29T10:08:30;21.40;19.80
67101;DHT22;54019;61.746;16.106;2022-12-29T10:11:08;21.40;20.00
67101;DHT22;54019;61.746;16.106;2022-12-29T10:13:43;21.40;19.80
67101;DHT22;54019;61.746;16.106;2022-12-29T10:16:20;21.50;20.00
67101;DHT22;54019;61.746;16.106;2022-12-29T10:21:49;21.50;20.10
67101;DHT22;54019;61.746;16.106;2022-12-29T10:24:21;21.50;20.30
67101;DHT22;54019;61.746;16.106;2022-12-29T10:26:49;21.50;20.50
67101;DHT22;54019;61.746;16.106;2022-12-29T10:29:19;21.50;20.70
67101;DHT22;54019;61.746;16.106;2022-12-29T10:31:48;21.60;20.60
67101;DHT22;54019;61.746;16.106;2022-12-29T10:34:20;21.60;20.70
67101;DHT22;54019;61.746;16.106;2022-12-29T10:36:48;21.50;20.60
67101;DHT22;54019;61.746;16.106;2022-12-29T10:39:19;21.60;20.20
67101;DHT22;54019;61.746;16.106;2022-12-29T10:41:49;21.60;20.00
67101;DHT22;54019;61.746;16.106;2022-12-29T10:44:17;21.70;20.10
67101;DHT22;54019;61.746;16.106;2022-12-29T10:46:44;21.70;20.00
67101;DHT22;54019;61.746;16.106;2022-12-29T10:49:18;21.70;19.80
67101;DHT22;54019;61.746;16.106;2022-12-29T10:51:46;21.70;19.90
67101;DHT22;54019;61.746;16.106;2022-12-29T10:54:16;21.60;20.00
67101;DHT22;54019;61.746;16.106;2022-12-29T10:56:47;21.60;20.00
67101;DHT22;54019;61.746;16.106;2022-12-29T10:59:19;21.50;20.40
67101;DHT22;54019;61.746;16.106;2022-12-29T11:01:53;21.40;20.70
67101;DHT22;54019;61.746;16.106;2022-12-29T11:04:35;21.30;20.70
67101;DHT22;54019;61.746;16.106;2022-12-29T11:07:06;21.30;20.70
67101;DHT22;54019;61.746;16.106;2022-12-29T11:09:35;21.30;21.00
67101;DHT22;54019;61.746;16.106;2022-12-29T11:12:18;21.30;21.50
67101;DHT22;54019;61.746;16.106;2022-12-29T11:14:44;21.30;21.00
67101;DHT22;54019;61.746;16.106;2022-12-29T11:17:15;21.40;22.00
67101;DHT22;54019;61.746;16.106;2022-12-29T11:19:42;21.50;22.20
67101;DHT22;54019;61.746;16.106;2022-12-29T11:22:14;21.50;21.80
67101;DHT22;54019;61.746;16.106;2022-12-29T11:24:44;21.50;21.80
67101;DHT22;54019;61.746;16.106;2022-12-29T11:27:15;21.60;21.50
67101;DHT22;54019;61.746;16.106;2022-12-29T11:29:42;21.60;21.50
67101;DHT22;54019;61.746;16.106;2022-12-29T11:32:12;21.60;21.30
67101;DHT22;54019;61.746;16.106;2022-12-29T11:34:38;21.80;22.80
67101;DHT22;54019;61.746;16.106;2022-12-29T11:37:09;21.90;22.80
67101;DHT22;54019;61.746;16.106;2022-12-29T11:39:40;22.00;24.20
67101;DHT22;54019;61.746;16.106;2022-12-29T11:42:12;22.30;24.70
67101;DHT22;54019;61.746;16.106;2022-12-29T11:44:43;22.40;24.60
67101;DHT22;54019;61.746;16.106;2022-12-29T11:47:19;22.40;24.80
67101;DHT22;54019;61.746;16.106;2022-12-29T11:49:49;22.50;25.10
67101;DHT22;54019;61.746;16.106;2022-12-29T11:52:21;22.50;25.20
67101;DHT22;54019;61.746;16.106;2022-12-29T11:54:47;22.50;25.20
67101;DHT22;54019;61.746;16.106;2022-12-29T11:57:15;22.50;25.60
67101;DHT22;54019;61.746;16.106;2022-12-29T11:59:43;22.50;25.70
67101;DHT22;54019;61.746;16.106;2022-12-29T12:05:23;22.40;25.20
67101;DHT22;54019;61.746;16.106;2022-12-29T12:07:56;22.40;25.10
67101;DHT22;54019;61.746;16.106;2022-12-29T12:10:26;22.50;24.90
67101;DHT22;54019;61.746;16.106;2022-12-29T12:12:58;22.50;24.90
67101;DHT22;54019;61.746;16.106;2022-12-29T12:15:28;22.50;24.80
67101;DHT22;54019;61.746;16.106;2022-12-29T12:17:59;22.50;24.10
67101;DHT22;54019;61.746;16.106;2022-12-29T12:20:32;22.50;23.70
67101;DHT22;54019;61.746;16.106;2022-12-29T12:23:12;22.40;24.10
67101;DHT22;54019;61.746;16.106;2022-12-29T12:25:45;22.40;23.80
67101;DHT22;54019;61.746;16.106;2022-12-29T12:28:21;22.30;23.60
67101;DHT22;54019;61.746;16.106;2022-12-29T12:30:55;22.30;23.40
67101;DHT22;54019;61.746;16.106;2022-12-29T12:33:26;22.30;23.20
67101;DHT22;54019;61.746;16.106;2022-12-29T12:36:13;22.30;22.80
67101;DHT22;54019;61.746;16.106;2022-12-29T12:38:48;22.20;22.70
67101;DHT22;54019;61.746;16.106;2022-12-29T12:41:24;22.20;23.20
67101;DHT22;54019;61.746;16.106;2022-12-29T12:44:00;22.00;23.00
67101;DHT22;54019;61.746;16.106;2022-12-29T12:46:45;21.90;23.00
67101;DHT22;54019;61.746;16.106;2022-12-29T12:49:35;21.80;22.70
67101;DHT22;54019;61.746;16.106;2022-12-29T12:52:11;21.80;22.90
67101;DHT22;54019;61.746;16.106;2022-12-29T12:54:54;21.70;22.80
67101;DHT22;54019;61.746;16.106;2022-12-29T12:57:31;21.60;22.70
67101;DHT22;54019;61.746;16.106;2022-12-29T13:00:07;21.60;22.90
67101;DHT22;54019;61.746;16.106;2022-12-29T13:02:41;21.60;23.00
67101;DHT22;54019;61.746;16.106;2022-12-29T13:05:36;21.50;23.00
67101;DHT22;54019;61.746;16.106;2022-12-29T13:11:07;21.60;22.50
67101;DHT22;54019;61.746;16.106;2022-12-29T13:14:09;21.60;22.20
67101;DHT22;54019;61.746;16.106;2022-12-29T13:16:43;21.60;22.70
67101;DHT22;54019;61.746;16.106;2022-12-29T13:19:17;21.60;22.80
67101;DHT22;54019;61.746;16.106;2022-12-29T13:21:55;21.60;22.50
67101;DHT22;54019;61.746;16.106;2022-12-29T13:24:26;21.60;22.10
67101;DHT22;54019;61.746;16.106;2022-12-29T13:27:00;21.60;22.10
67101;DHT22;54019;61.746;16.106;2022-12-29T13:29:33;21.60;22.00
67101;DHT22;54019;61.746;16.106;2022-12-29T13:32:13;21.50;22.70
67101;DHT22;54019;61.746;16.106;2022-12-29T13:34:48;21.50;22.20
67101;DHT22;54019;61.746;16.106;2022-12-29T13:37:18;21.40;22.40
67101;DHT22;54019;61.746;16.106;2022-12-29T13:39:48;21.40;22.50
67101;DHT22;54019;61.746;16.106;2022-12-29T13:42:18;21.30;22.60
67101;DHT22;54019;61.746;16.106;2022-12-29T13:44:46;21.30;22.90
67101;DHT22;54019;61.746;16.106;2022-12-29T13:47:20;21.20;23.50
67101;DHT22;54019;61.746;16.106;2022-12-29T13:49:48;21.20;23.00
67101;DHT22;54019;61.746;16.106;2022-12-29T13:52:20;21.20;23.70
67101;DHT22;54019;61.746;16.106;2022-12-29T13:54:57;21.30;23.80
67101;DHT22;54019;61.746;16.106;2022-12-29T13:57:38;21.30;25.10
67101;DHT22;54019;61.746;16.106;2022-12-29T14:00:12;21.40;24.70
67101;DHT22;54019;61.746;16.106;2022-12-29T14:02:50;21.40;25.40
67101;DHT22;54019;61.746;16.106;2022-12-29T14:05:29;21.40;24.70
67101;DHT22;54019;61.746;16.106;2022-12-29T14:07:58;21.50;24.50
67101;DHT22;54019;61.746;16.106;2022-12-29T14:10:28;21.50;25.20
67101;DHT22;54019;61.746;16.106;2022-12-29T14:13:03;21.50;23.90
67101;DHT22;54019;61.746;16.106;2022-12-29T14:15:29;21.50;24.70
67101;DHT22;54019;61.746;16.106;2022-12-29T14:18:11;21.50;24.60
67101;DHT22;54019;61.746;16.106;2022-12-29T14:20:39;21.50;24.30
67101;DHT22;54019;61.746;16.106;2022-12-29T14:23:28;21.40;24.60
67101;DHT22;54019;61.746;16.106;2022-12-29T14:25:57;21.40;25.20
67101;DHT22;54019;61.746;16.106;2022-12-29T14:28:26;21.40;25.10
67101;DHT22;54019;61.746;16.106;2022-12-29T14:30:53;21.40;25.80
67101;DHT22;54019;61.746;16.106;2022-12-29T14:33:20;21.30;25.70
67101;DHT22;54019;61.746;16.106;2022-12-29T14:35:48;21.20;24.90
67101;DHT22;54019;61.746;16.106;2022-12-29T14:38:28;21.20;25.60
67101;DHT22;54019;61.746;16.106;2022-12-29T14:41:29;21.20;25.20
67101;DHT22;54019;61.746;16.106;2022-12-29T14:44:09;21.30;25.60
67101;DHT22;54019;61.746;16.106;2022-12-29T14:46:45;21.30;26.70
67101;DHT22;54019;61.746;16.106;2022-12-29T14:49:16;21.30;25.90
67101;DHT22;54019;61.746;16.106;2022-12-29T14:51:43;21.40;25.60
67101;DHT22;54019;61.746;16.106;2022-12-29T14:57:31;21.50;25.70
67101;DHT22;54019;61.746;16.106;2022-12-29T15:00:05;21.50;26.20
67101;DHT22;54019;61.746;16.106;2022-12-29T15:02:32;21.50;26.00
67101;DHT22;54019;61.746;16.106;2022-12-29T15:05:00;21.50;28.10
67101;DHT22;54019;61.746;16.106;2022-12-29T15:07:29;21.50;27.40
67101;DHT22;54019;61.746;16.106;2022-12-29T15:10:00;21.50;27.70
67101;DHT22;54019;61.746;16.106;2022-12-29T15:12:35;21.50;27.20
67101;DHT22;54019;61.746;16.106;2022-12-29T15:15:17;21.40;26.90
67101;DHT22;54019;61.746;16.106;2022-12-29T15:17:44;21.40;27.60
67101;DHT22;54019;61.746;16.106;2022-12-29T15:20:17;21.30;27.00
67101;DHT22;54019;61.746;16.106;2022-12-29T15:22:49;21.30;27.90
67101;DHT22;54019;61.746;16.106;2022-12-29T15:25:18;21.30;27.70
67101;DHT22;54019;61.746;16.106;2022-12-29T15:27:48;21.20;26.90
67101;DHT22;54019;61.746;16.106;2022-12-29T15:30:16;21.20;27.20
67101;DHT22;54019;61.746;16.106;2022-12-29T15:32:43;21.20;27.50
67101;DHT22;54019;61.746;16.106;2022-12-29T15:35:27;21.20;27.00
67101;DHT22;54019;61.746;16.106;2022-12-29T15:37:53;21.20;26.60
67101;DHT22;54019;61.746;16.106;2022-12-29T15:40:24;21.20;26.10
67101;DHT22;54019;61.746;16.106;2022-12-29T15:45:49;21.20;26.30